Huvudsida
METAR-TAF:

METAR-TAF

Flygplatser :

Svalbards flygplats. Longyear

Longyearbyen, Norge

latitud: 78-15N, longitud: 015-28E, höjd: 2 m

Aktuellt väderrapport

Denna rapport gjordes för 15 minuter sedan, klockan 03:50 UTC
Vind 10 kt från väst/nordväst
Temperatur 1°C
Fuktighet 69%
Tryck 992 hPa
Sikt 10 km eller mer
Få moln på en höjd av 4900 ft

METAR: ENSB 230350Z 29010KT 9999 FEW049 01/M04 Q0992 RMK WIND 1400FT 29008KT

Tid: 06:05 (04:05 UTC)

Väderprognos

Prognos gäller från 23 kl. 00 UTC till 23 kl. 24 UTC
Vind 8 kt från nord/nordväst
Sikt 10 km eller mer
Få moln på en höjd av 2000 ft
Spridda moln på en höjd av 3000 ft

TAF: ENSB 2300/2324 34008KT 9999 FEW020 SCT030

Aktuella väderrapporter och prognoser från 4000 flygplatser (METAR- och TAF-rapporter).

De tillgängliga stationerna syns som gula och röda prickar på kartan.

För musen över prickarna för att se namnen på stationerna.

Klicka sedan för att få väderrapporter och prognoser.

För att ändra kartan: Klicka på de gröna knapparna med ett svart kors på för att zooma in; den gröna knappen med ett streck på för att zooma ut; eller på de gröna pilarna för angränsande kartor.


METAR-TAF: